首页
METAR-TAF:

METAR-TAF

机场 :

埃德蒙顿国际机场

埃德蒙顿, 艾伯塔, 加拿大

纬度: 53-18N, 经度: 113-35W, 海拔: 715米

当前天气观测

该预报发布于36分钟前的12:00 UTC
风速9节,风向西
温度 12°C
湿度 76%
气压 1019 hPa
能見度: 2.4公里

METAR: CYEG 181200Z 27009KT 1 1/2SM FU VV026 12/08 A3008 RMK FU8 SLP189 DENSITY ALT 2400FT

时间: 06:36 (12:36 UTC)

预报

该预报发布于58分钟前的11:38 UTC
预报有效从18日的 12点(UTC)到 19日的 12点(UTC)
风速5节,风向西转西南
层高于2000英尺
几率 30%
从 18日的 12点(UTC)到 18日的 14点(UTC)
能見度: 1.2公里
从 18日的 1400点(UTC)
风速12节,风向西北,有时为22节阵风
能見度: 3.2公里
天空无云
短暂存在
从 18日的 14点(UTC)到 18日的 20点(UTC)
能見度: 6.4公里
从 18日的 2000点(UTC)
风速12节,风向西北
能見度: 8.0公里
少量云层高于3000英尺
从 19日的 0200点(UTC)
风速6节,风向西转西北
能見度: 9.7公里
天空无云
从 19日的 0500点(UTC)
风速5节,风向西南
能見度: 10公里
少量云层高于9000英尺

TAF: CYEG 181138Z 1812/1912 25005KT 11/2SM FU VV020 PROB30 1812/1814 3/4SM FU FM181400 32012G22KT 2SM FU SKC TEMPO 1814/1820 4SM FU FM182000 32012KT 5SM FU FEW030 FM190200 29006KT 6SM FU SKC FM190500 23005KT P6SM FEW090 RMK NXT FCST BY 181500Z

超过4000个机场的气象观测和天气预报(METAR&TAF报告)。

可查询的气象台以黄色和红色小点在地图上表示。

将鼠标移到小点上方,可查看气象台名称。

然后点击查看天气观测和预报。

如需切换地图:点击带黑十字的绿色按钮放大地图;点击带横线的绿色按钮缩小地图;或者点击绿色箭头查看邻近地区的地图。


METAR-TAF: